KIPL/IPL METAR and TAF weather

Enter ICAO airport designator
Station Type Date Time Source
KIPL METAR 2022/05/23 12:53 UTC NOAA

KIPL 231253Z AUTO 13003KT 10SM CLR 19/13 A2978 RMK AO2 SLP084 T01940128


Station Type Date Time Source
KIPL Decoded METAR 2022/05/23 12:53 UTC NOAA

Imperial, Imperial County Airport, CA, United States (KIPL) 32-50-03N 115-34-43W -15M
May 23, 2022 - 08:53 AM EDT / 2022.05.23 1253 UTC
Wind: from the SE (130 degrees) at 3 MPH (3 KT):0
Visibility: 10 mile(s):0
Sky conditions: clear
Temperature: 66.9 F (19.4 C)
Dew Point: 55.0 F (12.8 C)
Relative Humidity: 65%
Pressure (altimeter): 29.78 in. Hg (1008 hPa)
ob: KIPL 231253Z AUTO 13003KT 10SM CLR 19/13 A2978 RMK AO2 SLP084 T01940128
cycle: 13

Station Type Date Time Source
KIPL TAF 2022/05/23 12:22 UTC NOAA

TAF KIPL 231120Z 2312/2412 13005KT P6SM SCT250
FM240200 27007KT P6SM SKC
FM241000 13005KT P6SM SKC

Example: see airport list